Park City, UT

8:14 AM MDT on August 22, 2014 (GMT -0600)
Lower Deer Valley | Change Station
CLOSE
Current Station
Personal Weather Station
Location: Park City, UT
Elevation: 7126 ft
Nearby Weather Stations

Elev 7126 ft 40.64 °N, 111.49 °W | Updated 9 seconds ago

Mostly Cloudy
Mostly Cloudy
55.8 °F
Feels Like 55.8 °F
N
2.0
Wind Variable Wind from NE
Gusts 5.0 mph

Today
High -- | Low -- °F
--% Chance of Precip.
Yesterday
High -- | Low -- °F
Precip. -- in
6:43 AM 8:13 PM
Waning Crescent, 8% visible
Pressure 30.12 in
Visibility 10.0 miles
Clouds Mostly Cloudy 12000 ft
Dew Point 45 °F
Humidity 68%
Rainfall 0.00 in
Snow Depth 0 in
UV 0 out of 12
Pollen 7.90 out of 12
Air Quality Not available.
Flu Activity Not available.
METAR K36U 221355Z AUTO 00000KT 10SM BKN120 11/09 A3012 RMK AO2

More Conditions Fewer Conditions

Pressure 30.12 in
Visibility 10.0 miles
Clouds Mostly Cloudy 12000 ft
Dew Point 45 °F
Humidity 68%
Rainfall 0.00 in
Snow Depth 0 in
UV 0 out of 12
Pollen 7.90 out of 12
Air Quality Not available.
Flu Activity Not available.
METAR K36U 221355Z AUTO 00000KT 10SM BKN120 11/09 A3012 RMK AO2

More Conditions Fewer Conditions

Nowcast | as of 7:47 am MDT on August 22, 2014

Scattered showers and isolated thunderstorms will continue over portions of northern Utah through this morning. The strongest storms at 745 am were located over northwest Box Elder County near Lynn...Yost and Park Valley. Brief heavy rain...gusty winds and dangerous lightning may accompany some storms.

×

10-Day Weather Forecast

Almanac

Astronomy

Aug. 22, 2014 Rise Set
Actual Time 6:43 AM MDT 8:13 PM MDT
Civil Twilight 6:14 AM MDT 8:42 PM MDT
Nautical Twilight 5:39 AM MDT 9:16 PM MDT
Astronomical Twilight 5:02 AM MDT 9:53 PM MDT
Moon 4:08 AM MDT 6:24 PM MDT
Length of Visible Light 14h 27m
Length of Day
13h 30m
Tomorrow will be 2m 30s shorter.
Waning Crescent, 8% of the Moon is Illuminated
Today
Waning Crescent
Aug 25
New
Sep 2
First Quarter
Sep 8
Full
Sep 15
Last Quarter

Today's Extremes

State Highs State Lows

Community

WunderPhotos

Upload Photos

1,746,175 photos uploaded!

Nearby

Snow Depth

Station Depth Elevation
Thaynes Canyon 0 in 9200 ft
Mill-d North 0 in 8960 ft
Brighton 0 in 8750 ft
Hardscrabble 0 in 7250 ft
Louis Meadow 0 in 6700 ft

Earthquake Activity

City Distance Mag. Time & Date
No recent earthquake activity has been reported nearby.
Minimum magnitude displayed is 2.5.

Coastal Water Temperatures

Place Temperature
No Stations Reporting

Nearby Weather Stations